Time;durP1;ratioP1;P1;durP2;ratioP2;P2;SDS_P1;SDS_P2;PMS_P1;PMS_P2;Temp;Humidity;BMP_temperature;BMP_pressure;BME280_temperature;BME280_humidity;BME280_pressure;Samples;Min_cycle;Max_cycle;Signal;HPM_P1;HPM_P2
2024/02/02 00:00:17;;;;;;;26.88;6.97;;;4.50;99.90;;;;;;5064557;28;20024;-62
2024/02/02 00:02:43;;;;;;;25.80;7.97;;;4.50;99.90;;;;;;5057815;28;20406;-62
2024/02/02 00:05:09;;;;;;;27.15;8.25;;;4.50;99.90;;;;;;5056043;28;20017;-62
2024/02/02 00:07:34;;;;;;;32.50;8.73;;;4.40;99.90;;;;;;5064902;28;20028;-62
2024/02/02 00:10:00;;;;;;;26.63;8.65;;;4.50;99.90;;;;;;5063451;28;20078;-61
2024/02/02 00:12:26;;;;;;;26.83;8.18;;;4.40;99.90;;;;;;5059423;28;20037;-61
2024/02/02 00:14:52;;;;;;;33.28;9.48;;;4.40;99.90;;;;;;5059669;28;20029;-62
2024/02/02 00:17:19;;;;;;;30.98;7.75;;;4.40;99.90;;;;;;5058276;28;20032;-62
2024/02/02 00:19:45;;;;;;;25.90;6.80;;;4.40;99.90;;;;;;5059685;28;20029;-62
2024/02/02 00:22:11;;;;;;;39.30;7.82;;;4.40;99.90;;;;;;5063408;28;20028;-62
2024/02/02 00:24:37;;;;;;;25.00;6.38;;;4.40;99.90;;;;;;5059276;28;20032;-62
2024/02/02 00:27:04;;;;;;;22.80;6.75;;;4.40;99.90;;;;;;5063601;28;20106;-62
2024/02/02 00:29:30;;;;;;;29.58;7.93;;;4.30;99.90;;;;;;5063887;28;20174;-62
2024/02/02 00:31:55;;;;;;;29.38;6.97;;;4.30;99.90;;;;;;5059128;28;20113;-62
2024/02/02 00:34:21;;;;;;;33.80;7.22;;;4.30;99.90;;;;;;5065131;28;20115;-62
2024/02/02 00:36:47;;;;;;;20.50;5.65;;;4.30;99.90;;;;;;5057280;28;20033;-62
2024/02/02 00:39:12;;;;;;;25.95;7.35;;;4.30;99.90;;;;;;5064436;28;20415;-62
2024/02/02 00:41:38;;;;;;;21.92;6.35;;;4.30;99.90;;;;;;5059164;28;20039;-62
2024/02/02 00:44:06;;;;;;;27.67;8.32;;;4.40;99.90;;;;;;5062266;28;20078;-62
2024/02/02 00:46:32;;;;;;;31.73;6.40;;;4.30;99.90;;;;;;5059951;28;20027;-62
2024/02/02 00:48:57;;;;;;;29.65;6.78;;;4.30;99.90;;;;;;5058311;28;20024;-62
2024/02/02 00:51:23;;;;;;;31.73;6.97;;;4.30;99.90;;;;;;5051543;28;20024;-62
2024/02/02 00:53:49;;;;;;;20.25;6.25;;;4.20;99.90;;;;;;5063785;28;20039;-62
2024/02/02 00:56:15;;;;;;;21.40;6.68;;;4.20;99.90;;;;;;5062079;28;20056;-62
2024/02/02 00:58:40;;;;;;;19.90;5.88;;;4.20;99.90;;;;;;5058100;28;20419;-62
2024/02/02 01:01:06;;;;;;;25.77;6.88;;;4.20;99.90;;;;;;5061652;28;20108;-63
2024/02/02 01:03:33;;;;;;;28.27;6.45;;;4.20;99.90;;;;;;5060708;28;20032;-63
2024/02/02 01:05:59;;;;;;;30.15;6.53;;;4.20;99.90;;;;;;5060886;28;20052;-62
2024/02/02 01:08:26;;;;;;;21.73;6.55;;;4.20;99.90;;;;;;5059352;28;20029;-61
2024/02/02 01:10:52;;;;;;;18.58;5.75;;;4.30;99.90;;;;;;5059534;28;20102;-63
2024/02/02 01:13:18;;;;;;;26.20;5.47;;;4.30;99.90;;;;;;5061590;28;20087;-63
2024/02/02 01:15:43;;;;;;;22.92;6.80;;;4.30;99.90;;;;;;5054044;28;20404;-63
2024/02/02 01:18:09;;;;;;;20.15;5.55;;;4.30;99.90;;;;;;5061366;28;20025;-61
2024/02/02 01:20:35;;;;;;;27.48;6.35;;;4.40;99.90;;;;;;5055013;28;20068;-61
2024/02/02 01:23:02;;;;;;;19.85;5.20;;;4.30;99.90;;;;;;5059321;28;20048;-62
2024/02/02 01:25:31;;;;;;;19.70;4.97;;;4.40;99.90;;;;;;5060272;28;20017;-62
2024/02/02 01:27:57;;;;;;;21.05;5.20;;;4.40;99.90;;;;;;5060332;28;20012;-62
2024/02/02 01:30:23;;;;;;;27.40;6.22;;;4.60;99.90;;;;;;5057690;28;20029;-62
2024/02/02 01:32:52;;;;;;;25.73;5.93;;;4.70;99.90;;;;;;5065575;28;20033;-62
2024/02/02 01:35:17;;;;;;;21.45;5.60;;;4.60;99.90;;;;;;5058771;28;20028;-62
2024/02/02 01:37:44;;;;;;;18.20;4.45;;;4.70;99.90;;;;;;5061626;28;20551;-64
2024/02/02 01:40:13;;;;;;;15.75;5.13;;;4.70;99.90;;;;;;5058114;28;20039;-62
2024/02/02 01:42:39;;;;;;;20.02;5.28;;;4.70;99.90;;;;;;5061371;28;20021;-63
2024/02/02 01:45:06;;;;;;;15.98;4.57;;;4.70;99.90;;;;;;5060850;28;20480;-62
2024/02/02 01:47:31;;;;;;;24.58;5.93;;;4.70;99.90;;;;;;5061115;28;20020;-63
2024/02/02 01:49:57;;;;;;;23.42;5.75;;;4.80;99.90;;;;;;5055251;28;20125;-62
2024/02/02 01:52:23;;;;;;;22.20;6.30;;;4.70;99.90;;;;;;5059057;28;20033;-62
2024/02/02 01:54:48;;;;;;;23.17;6.15;;;4.70;99.90;;;;;;5056483;28;20044;-62
2024/02/02 01:57:14;;;;;;;28.42;6.43;;;4.80;99.90;;;;;;5061192;28;20119;-62
2024/02/02 01:59:40;;;;;;;14.35;4.07;;;4.80;99.90;;;;;;5062096;28;20021;-62
2024/02/02 02:02:06;;;;;;;18.95;6.65;;;4.80;99.90;;;;;;5052439;28;20083;-62
2024/02/02 02:04:32;;;;;;;26.52;6.63;;;4.90;99.90;;;;;;5060818;28;20043;-62
2024/02/02 02:06:58;;;;;;;17.52;5.80;;;4.90;99.90;;;;;;5059985;28;20357;-62
2024/02/02 02:09:23;;;;;;;21.85;5.65;;;4.80;99.90;;;;;;5060006;28;20095;-62
2024/02/02 02:11:51;;;;;;;22.50;5.90;;;4.90;99.90;;;;;;5056164;28;20057;-62
2024/02/02 02:14:17;;;;;;;19.23;6.68;;;4.90;99.90;;;;;;5063549;28;20064;-63
2024/02/02 02:16:42;;;;;;;21.73;5.85;;;4.90;99.90;;;;;;5057105;28;20079;-62
2024/02/02 02:19:14;;;;;;;24.45;5.47;;;4.90;99.90;;;;;;5056935;28;20025;-63
2024/02/02 02:21:39;;;;;;;25.65;6.88;;;4.90;99.90;;;;;;5059531;28;20024;-62
2024/02/02 02:24:05;;;;;;;24.55;4.82;;;4.90;99.90;;;;;;5061155;28;20483;-62
2024/02/02 02:26:31;;;;;;;23.98;4.93;;;4.90;99.90;;;;;;5063620;28;20033;-62
2024/02/02 02:28:56;;;;;;;21.85;5.82;;;4.90;99.90;;;;;;5064583;28;20016;-62
2024/02/02 02:31:22;;;;;;;25.02;6.70;;;5.00;99.90;;;;;;5066338;28;20024;-62
2024/02/02 02:33:48;;;;;;;23.23;5.45;;;4.90;99.90;;;;;;5062044;28;20071;-62
2024/02/02 02:36:14;;;;;;;17.50;5.10;;;4.90;99.90;;;;;;5068992;28;20103;-62
2024/02/02 02:38:39;;;;;;;17.88;5.00;;;5.00;99.90;;;;;;5061253;28;20100;-62
2024/02/02 02:41:05;;;;;;;12.07;3.58;;;5.00;99.90;;;;;;5065010;28;20124;-62
2024/02/02 02:43:31;;;;;;;16.58;3.85;;;5.00;99.90;;;;;;5061611;28;20545;-62
2024/02/02 02:45:57;;;;;;;19.42;5.47;;;5.00;99.90;;;;;;5067437;28;20012;-62
2024/02/02 02:48:23;;;;;;;20.40;4.57;;;5.00;99.90;;;;;;5062797;28;20086;-62
2024/02/02 02:50:49;;;;;;;14.10;3.67;;;5.00;99.90;;;;;;5053779;28;20422;-62
2024/02/02 02:53:16;;;;;;;14.93;3.55;;;5.00;99.90;;;;;;5061503;28;20139;-62
2024/02/02 02:55:41;;;;;;;16.83;4.32;;;5.00;99.90;;;;;;5063646;28;20094;-63
2024/02/02 02:58:07;;;;;;;15.32;4.25;;;4.90;99.90;;;;;;5064935;28;20488;-62
2024/02/02 03:00:33;;;;;;;19.98;6.10;;;4.90;99.90;;;;;;5063886;28;20035;-62
2024/02/02 03:02:59;;;;;;;18.35;5.55;;;4.90;99.90;;;;;;5062447;28;20036;-62
2024/02/02 03:05:26;;;;;;;19.23;4.13;;;4.90;99.90;;;;;;5061037;28;20056;-61
2024/02/02 03:07:52;;;;;;;16.00;4.30;;;4.80;99.90;;;;;;5062679;28;20052;-63
2024/02/02 03:10:18;;;;;;;21.55;3.90;;;4.80;99.90;;;;;;5062374;28;20025;-62
2024/02/02 03:12:44;;;;;;;17.08;4.75;;;4.80;99.90;;;;;;5063554;28;20068;-61
2024/02/02 03:15:10;;;;;;;22.60;4.50;;;4.90;99.90;;;;;;5062961;28;20017;-62
2024/02/02 03:17:35;;;;;;;15.43;4.30;;;4.90;99.90;;;;;;5063607;28;20025;-62
2024/02/02 03:20:01;;;;;;;8.43;2.72;;;4.90;99.90;;;;;;5059617;28;20032;-62
2024/02/02 03:22:27;;;;;;;12.45;4.35;;;4.90;99.90;;;;;;5063378;28;20036;-62
2024/02/02 03:24:52;;;;;;;16.17;4.13;;;4.90;99.90;;;;;;5061210;28;20099;-62
2024/02/02 03:27:20;;;;;;;14.75;4.40;;;4.90;99.90;;;;;;5060765;28;20841;-62
2024/02/02 03:29:45;;;;;;;18.10;4.22;;;4.90;99.90;;;;;;5061996;28;20027;-62
2024/02/02 03:32:11;;;;;;;16.67;4.15;;;4.90;99.90;;;;;;5061058;28;20033;-62
2024/02/02 03:34:37;;;;;;;18.00;4.18;;;4.90;99.90;;;;;;5063178;28;20106;-62
2024/02/02 03:37:02;;;;;;;16.50;3.47;;;4.90;99.90;;;;;;5060633;28;20029;-62
2024/02/02 03:39:28;;;;;;;15.25;4.80;;;4.90;99.90;;;;;;5063407;28;20099;-61
2024/02/02 03:41:54;;;;;;;19.73;4.60;;;4.90;99.90;;;;;;5062570;28;20075;-62
2024/02/02 03:44:19;;;;;;;16.90;4.63;;;4.90;99.90;;;;;;5057785;28;20060;-62
2024/02/02 03:46:45;;;;;;;14.32;4.15;;;5.00;99.90;;;;;;5063040;28;20090;-62
2024/02/02 03:49:11;;;;;;;17.15;4.13;;;4.90;99.90;;;;;;5055272;28;20021;-62
2024/02/02 03:51:36;;;;;;;13.95;4.68;;;4.90;99.90;;;;;;5053251;28;20048;-62
2024/02/02 03:54:03;;;;;;;14.00;4.22;;;5.00;99.90;;;;;;5062095;28;20132;-62
2024/02/02 03:56:29;;;;;;;15.20;4.43;;;5.00;99.90;;;;;;5059954;28;20025;-63
2024/02/02 03:58:54;;;;;;;15.27;4.88;;;5.00;99.90;;;;;;5065286;28;20449;-62
2024/02/02 04:01:20;;;;;;;19.67;5.43;;;4.90;99.90;;;;;;5057555;28;20123;-62
2024/02/02 04:03:46;;;;;;;21.70;4.38;;;4.90;99.90;;;;;;5059639;28;20092;-63
2024/02/02 04:06:11;;;;;;;14.75;4.53;;;5.00;99.90;;;;;;5064641;28;20021;-62
2024/02/02 04:08:37;;;;;;;10.68;3.38;;;4.90;99.90;;;;;;5060487;28;20484;-62
2024/02/02 04:11:03;;;;;;;24.50;6.00;;;4.80;99.90;;;;;;5059968;28;20025;-62
2024/02/02 04:13:28;;;;;;;21.52;5.22;;;4.70;99.90;;;;;;5059466;28;20060;-62
2024/02/02 04:15:54;;;;;;;23.05;5.80;;;4.70;99.90;;;;;;5060883;28;20021;-63
2024/02/02 04:18:20;;;;;;;19.30;6.18;;;4.70;99.90;;;;;;5061406;28;20380;-62
2024/02/02 04:20:45;;;;;;;28.33;6.95;;;4.60;99.90;;;;;;5059280;28;20032;-63
2024/02/02 04:23:11;;;;;;;23.25;6.03;;;4.60;99.90;;;;;;5059563;28;20181;-62
2024/02/02 04:25:37;;;;;;;23.13;5.65;;;4.50;99.90;;;;;;5059774;28;20558;-63
2024/02/02 04:28:04;;;;;;;24.25;5.55;;;4.50;99.90;;;;;;5061441;28;20062;-63
2024/02/02 04:30:30;;;;;;;20.38;6.32;;;4.50;99.90;;;;;;5059956;28;20009;-63
2024/02/02 04:32:56;;;;;;;19.02;6.07;;;4.50;99.90;;;;;;5052467;28;20100;-63
2024/02/02 04:35:22;;;;;;;29.95;6.32;;;4.60;99.90;;;;;;5061466;28;20125;-63
2024/02/02 04:37:48;;;;;;;23.10;7.00;;;4.50;99.90;;;;;;5060512;28;20491;-63
2024/02/02 04:40:13;;;;;;;14.82;5.03;;;4.50;99.90;;;;;;5060507;28;20056;-63
2024/02/02 04:42:39;;;;;;;18.25;5.35;;;4.50;99.90;;;;;;5058589;28;20114;-63
2024/02/02 04:45:05;;;;;;;17.48;5.55;;;4.50;99.90;;;;;;5058799;28;20071;-63
2024/02/02 04:47:31;;;;;;;16.38;4.18;;;4.50;99.90;;;;;;5059222;28;20049;-63
2024/02/02 04:49:56;;;;;;;20.48;5.88;;;4.60;99.90;;;;;;5059509;28;20025;-63
2024/02/02 04:52:22;;;;;;;19.90;5.57;;;4.60;99.90;;;;;;5059590;28;20048;-62
2024/02/02 04:54:48;;;;;;;21.63;5.78;;;4.60;99.90;;;;;;5060753;28;20039;-63
2024/02/02 04:57:15;;;;;;;16.63;4.00;;;4.60;99.90;;;;;;5061953;28;20461;-62
2024/02/02 04:59:40;;;;;;;16.63;4.85;;;4.60;99.90;;;;;;5063764;28;20021;-64
2024/02/02 05:02:06;;;;;;;17.50;4.78;;;4.70;99.90;;;;;;5059414;28;20079;-60
2024/02/02 05:04:32;;;;;;;15.38;3.78;;;4.70;99.90;;;;;;5061435;28;20033;-64
2024/02/02 05:06:58;;;;;;;21.33;5.80;;;4.70;99.90;;;;;;5064682;28;20028;-64
2024/02/02 05:09:23;;;;;;;12.25;4.82;;;4.70;99.90;;;;;;5061648;28;20024;-63
2024/02/02 05:11:49;;;;;;;12.38;3.30;;;4.70;99.90;;;;;;5058603;28;20063;-63
2024/02/02 05:14:14;;;;;;;18.02;5.00;;;4.70;99.90;;;;;;5058998;28;20036;-63
2024/02/02 05:16:40;;;;;;;18.70;4.47;;;4.70;99.90;;;;;;5059448;28;20028;-61
2024/02/02 05:19:06;;;;;;;17.08;5.18;;;4.80;99.90;;;;;;5058886;28;20120;-61
2024/02/02 05:21:32;;;;;;;16.95;3.80;;;4.70;99.90;;;;;;5055909;28;20150;-61
2024/02/02 05:23:58;;;;;;;17.67;5.30;;;4.80;99.90;;;;;;5061817;28;20070;-61
2024/02/02 05:26:23;;;;;;;18.00;5.53;;;4.80;99.90;;;;;;5058683;28;20036;-62
2024/02/02 05:28:49;;;;;;;18.02;5.15;;;4.80;99.90;;;;;;5056769;28;20048;-61
2024/02/02 05:31:15;;;;;;;17.25;4.60;;;4.80;99.90;;;;;;5062040;28;20539;-62
2024/02/02 05:33:43;;;;;;;17.27;4.35;;;4.80;99.90;;;;;;5059623;28;20463;-63
2024/02/02 05:36:08;;;;;;;14.88;4.25;;;4.80;99.90;;;;;;5061967;28;20036;-62
2024/02/02 05:38:36;;;;;;;18.77;5.75;;;4.80;99.90;;;;;;5058585;28;20033;-62
2024/02/02 05:41:03;;;;;;;15.65;4.20;;;4.90;99.90;;;;;;5060735;28;20028;-62
2024/02/02 05:43:29;;;;;;;15.63;3.75;;;4.90;99.90;;;;;;5061088;28;20097;-62
2024/02/02 05:45:55;;;;;;;20.20;5.55;;;4.90;99.90;;;;;;5054967;28;20077;-62
2024/02/02 05:48:20;;;;;;;17.80;4.28;;;5.00;99.90;;;;;;5051717;28;20029;-61
2024/02/02 05:50:47;;;;;;;13.63;3.83;;;5.00;99.90;;;;;;5058665;28;20050;-62
2024/02/02 05:53:14;;;;;;;20.05;4.85;;;5.00;99.90;;;;;;5060663;28;20044;-63
2024/02/02 05:55:40;;;;;;;9.90;3.05;;;5.10;99.90;;;;;;5060307;28;20060;-62
2024/02/02 05:58:05;;;;;;;13.25;3.20;;;5.10;99.90;;;;;;5064160;28;20048;-63
2024/02/02 06:00:31;;;;;;;18.98;5.10;;;5.20;99.90;;;;;;5059708;28;20060;-63
2024/02/02 06:02:57;;;;;;;16.30;4.00;;;5.20;99.90;;;;;;5058490;28;20073;-62
2024/02/02 06:05:22;;;;;;;16.75;4.10;;;5.20;99.90;;;;;;5065649;28;20028;-61
2024/02/02 06:07:48;;;;;;;27.73;4.57;;;5.20;99.90;;;;;;5056233;28;20052;-63
2024/02/02 06:10:14;;;;;;;18.58;4.07;;;5.20;99.90;;;;;;5060964;28;20025;-62
2024/02/02 06:12:39;;;;;;;11.20;2.67;;;5.10;99.90;;;;;;5058310;28;20579;-62
2024/02/02 06:15:06;;;;;;;19.50;3.78;;;5.10;99.90;;;;;;5055665;28;20509;-62
2024/02/02 06:17:32;;;;;;;17.17;4.57;;;5.10;99.90;;;;;;5056874;28;20032;-63
2024/02/02 06:19:58;;;;;;;18.75;3.45;;;5.10;99.90;;;;;;5062907;28;20523;-63
2024/02/02 06:22:23;;;;;;;11.50;3.13;;;5.10;99.90;;;;;;5057621;28;20046;-62
2024/02/02 06:24:49;;;;;;;13.45;3.40;;;5.10;99.90;;;;;;5059259;28;20060;-62
2024/02/02 06:27:15;;;;;;;22.65;4.53;;;5.10;99.90;;;;;;5058029;28;20078;-63
2024/02/02 06:29:41;;;;;;;12.35;4.03;;;5.10;99.90;;;;;;5059407;28;20108;-62
2024/02/02 06:32:07;;;;;;;19.52;4.20;;;5.00;99.90;;;;;;5055052;28;20095;-62
2024/02/02 06:34:33;;;;;;;15.75;4.05;;;5.00;99.90;;;;;;5055969;28;20039;-62
2024/02/02 06:36:58;;;;;;;12.75;3.80;;;5.00;99.90;;;;;;5060156;28;20025;-62
2024/02/02 06:39:24;;;;;;;23.38;4.35;;;5.00;99.90;;;;;;5057694;28;20028;-62
2024/02/02 06:41:50;;;;;;;16.00;4.00;;;5.00;99.90;;;;;;5057498;28;20033;-62
2024/02/02 06:44:16;;;;;;;18.08;5.07;;;5.00;99.90;;;;;;5055949;28;20051;-63
2024/02/02 06:46:43;;;;;;;11.65;3.13;;;5.00;99.90;;;;;;5061218;28;20044;-63
2024/02/02 06:49:08;;;;;;;19.17;3.45;;;5.10;99.90;;;;;;5060140;28;20060;-63
2024/02/02 06:51:34;;;;;;;18.58;3.72;;;5.10;99.90;;;;;;5057778;28;20063;-63
2024/02/02 06:54:00;;;;;;;12.40;4.05;;;5.10;99.90;;;;;;5054733;28;20025;-63
2024/02/02 06:56:45;;;;;;;14.65;3.88;;;5.10;99.90;;;;;;5058791;28;20021;-63
2024/02/02 06:59:11;;;;;;;10.90;3.53;;;5.20;99.90;;;;;;5053277;28;20020;-63
2024/02/02 07:01:37;;;;;;;14.85;4.18;;;5.10;99.90;;;;;;5057953;28;20059;-63
2024/02/02 07:04:06;;;;;;;15.02;3.60;;;5.10;99.90;;;;;;5054537;28;20029;-63
2024/02/02 07:06:33;;;;;;;11.35;3.00;;;5.20;99.90;;;;;;5057452;28;20116;-63
2024/02/02 07:09:23;;;;;;;18.20;4.05;;;5.20;99.90;;;;;;5058763;28;20094;-63
2024/02/02 07:11:49;;;;;;;;;;;5.20;99.90;;;;;;5060496;28;20483;-63
2024/02/02 07:14:45;;;;;;;21.13;3.58;;;5.20;99.90;;;;;;5063368;28;19924;-63
2024/02/02 07:17:34;;;;;;;12.60;2.85;;;5.20;99.90;;;;;;5062550;28;20056;-63
2024/02/02 07:20:04;;;;;;;10.40;3.05;;;5.20;99.90;;;;;;5060176;28;20052;-63
2024/02/02 07:22:40;;;;;;;12.60;3.67;;;5.20;99.90;;;;;;5065767;28;20023;-63
2024/02/02 07:25:10;;;;;;;13.48;3.78;;;5.20;99.90;;;;;;5065946;28;20025;-63
2024/02/02 07:27:50;;;;;;;16.73;3.83;;;5.20;99.90;;;;;;5060965;28;20519;-63
2024/02/02 07:30:28;;;;;;;;;;;5.20;99.90;;;;;;5061736;28;20444;-63
2024/02/02 07:32:53;;;;;;;15.77;4.38;;;5.20;99.90;;;;;;5062132;28;19908;-63
2024/02/02 07:35:30;;;;;;;17.92;3.90;;;5.30;99.90;;;;;;5063680;28;20032;-64
2024/02/02 07:38:03;;;;;;;15.20;3.20;;;5.40;99.90;;;;;;5062942;28;20199;-63
2024/02/02 07:40:55;;;;;;;10.85;3.10;;;5.30;99.90;;;;;;5065318;28;20021;-64
2024/02/02 07:43:20;;;;;;;15.88;4.00;;;5.40;99.90;;;;;;5066075;28;20291;-64
2024/02/02 07:45:46;;;;;;;15.82;3.92;;;5.30;99.90;;;;;;5064666;28;20100;-64
2024/02/02 07:48:12;;;;;;;15.52;4.28;;;5.30;99.90;;;;;;5063188;28;20567;-63
2024/02/02 07:50:37;;;;;;;11.25;2.75;;;5.20;99.90;;;;;;5060275;28;20107;-63
2024/02/02 07:53:03;;;;;;;12.40;3.50;;;5.20;99.90;;;;;;5058393;28;20056;-63
2024/02/02 07:55:29;;;;;;;17.13;3.88;;;5.20;99.90;;;;;;5061665;28;20056;-63
2024/02/02 07:57:54;;;;;;;12.85;3.65;;;5.20;99.90;;;;;;5064261;28;20107;-64
2024/02/02 08:00:20;;;;;;;19.00;3.42;;;5.20;99.90;;;;;;5063081;28;20029;-64
2024/02/02 08:02:46;;;;;;;13.57;2.75;;;5.20;99.90;;;;;;5068492;28;20032;-63
2024/02/02 08:05:12;;;;;;;9.27;2.78;;;5.20;99.90;;;;;;5060605;28;20523;-63
2024/02/02 08:07:38;;;;;;;13.48;2.95;;;5.20;99.90;;;;;;5060556;28;20020;-63
2024/02/02 08:10:04;;;;;;;10.80;3.10;;;5.20;99.90;;;;;;5068907;28;20017;-63
2024/02/02 08:12:30;;;;;;;15.70;3.90;;;5.30;99.90;;;;;;5059502;28;20059;-64
2024/02/02 08:14:56;;;;;;;21.27;3.97;;;5.30;99.90;;;;;;5059829;28;20040;-63
2024/02/02 08:17:22;;;;;;;16.75;3.47;;;5.30;99.90;;;;;;5068238;28;20468;-64
2024/02/02 08:19:48;;;;;;;17.88;4.03;;;5.30;99.90;;;;;;5055858;28;20036;-64
2024/02/02 08:22:13;;;;;;;17.50;4.13;;;5.30;99.90;;;;;;5063752;28;20029;-63
2024/02/02 08:24:39;;;;;;;16.92;3.28;;;5.40;99.90;;;;;;5057319;28;20078;-64
2024/02/02 08:27:04;;;;;;;16.23;2.97;;;5.40;99.90;;;;;;5060399;28;20066;-64
2024/02/02 08:29:30;;;;;;;10.80;2.78;;;5.50;99.90;;;;;;5059230;28;20027;-63
2024/02/02 08:31:57;;;;;;;12.10;3.10;;;5.50;99.90;;;;;;5064680;28;20033;-63
2024/02/02 08:34:25;;;;;;;11.85;3.20;;;5.60;99.90;;;;;;5055249;28;20029;-63
2024/02/02 08:36:51;;;;;;;7.32;1.85;;;5.60;99.90;;;;;;5061261;28;20029;-64
2024/02/02 08:39:17;;;;;;;13.30;2.55;;;5.70;99.90;;;;;;5064186;28;20024;-64
2024/02/02 08:41:42;;;;;;;6.45;2.15;;;5.70;99.90;;;;;;5065740;28;20451;-64
2024/02/02 08:44:31;;;;;;;15.30;3.15;;;5.80;99.90;;;;;;5060382;28;20102;-63
2024/02/02 08:46:57;;;;;;;12.40;3.15;;;5.90;99.90;;;;;;5063026;28;20078;-63
2024/02/02 08:49:55;;;;;;;18.02;3.35;;;5.90;99.90;;;;;;5065988;28;20024;-64
2024/02/02 08:52:24;;;;;;;17.25;3.95;;;6.00;99.90;;;;;;5061995;28;20124;-64
2024/02/02 08:54:51;;;;;;;14.40;4.07;;;6.10;99.90;;;;;;5062333;28;20036;-63
2024/02/02 08:57:29;;;;;;;15.05;3.22;;;6.10;99.90;;;;;;5059328;28;20031;-64
2024/02/02 08:59:55;;;;;;;7.65;3.05;;;6.30;99.90;;;;;;5059151;28;20021;-64
2024/02/02 09:02:49;;;;;;;11.27;3.25;;;6.40;99.90;;;;;;5062731;28;20107;-64
2024/02/02 09:05:23;;;;;;;13.73;3.15;;;6.50;99.90;;;;;;5063056;28;20016;-63
2024/02/02 09:07:52;;;;;;;16.80;3.25;;;6.60;99.90;;;;;;5063053;28;20135;-63
2024/02/02 09:10:29;;;;;;;16.55;3.78;;;6.60;99.90;;;;;;5063710;28;20073;-63
2024/02/02 09:13:00;;;;;;;14.20;3.05;;;6.50;99.90;;;;;;5057250;28;20053;-63
2024/02/02 09:15:26;;;;;;;15.45;3.67;;;6.60;99.90;;;;;;5063832;28;20476;-64
2024/02/02 09:17:52;;;;;;;14.95;2.78;;;6.80;99.90;;;;;;5061133;28;20047;-64
2024/02/02 09:20:36;;;;;;;13.60;3.25;;;6.70;99.90;;;;;;5060281;28;20028;-63
2024/02/02 09:23:03;;;;;;;14.27;3.60;;;6.80;99.90;;;;;;5066897;28;20025;-63
2024/02/02 09:25:38;;;;;;;15.50;4.32;;;6.80;99.90;;;;;;5060331;28;20064;-64
2024/02/02 09:28:06;;;;;;;12.82;4.45;;;6.90;99.90;;;;;;5069736;28;20009;-64
2024/02/02 09:30:32;;;;;;;12.20;3.00;;;7.00;99.90;;;;;;5055122;28;20036;-63
2024/02/02 09:32:59;;;;;;;14.25;3.25;;;7.10;99.90;;;;;;5066055;28;20021;-61
2024/02/02 09:35:52;;;;;;;14.30;3.63;;;7.10;99.90;;;;;;5063836;28;20480;-61
2024/02/02 09:38:18;;;;;;;15.60;3.90;;;7.20;99.90;;;;;;5063785;28;20035;-61
2024/02/02 09:41:03;;;;;;;15.55;3.90;;;7.20;99.90;;;;;;5058024;28;20032;-61
2024/02/02 09:43:40;;;;;;;15.85;3.97;;;7.20;99.90;;;;;;5065988;28;20496;-63
2024/02/02 09:46:20;;;;;;;16.48;3.42;;;7.10;99.90;;;;;;5059398;28;20110;-61
2024/02/02 09:48:46;;;;;;;11.98;3.70;;;7.10;99.90;;;;;;5055163;28;20384;-61
2024/02/02 09:51:29;;;;;;;12.70;3.38;;;7.10;99.90;;;;;;5064331;28;20024;-61
2024/02/02 09:54:07;;;;;;;22.05;3.50;;;7.30;99.90;;;;;;5062740;28;20033;-61
2024/02/02 09:56:59;;;;;;;17.13;2.95;;;7.30;99.90;;;;;;5059101;28;20036;-61
2024/02/02 09:59:37;;;;;;;12.98;3.25;;;7.30;99.90;;;;;;5057390;28;20029;-63
2024/02/02 10:02:18;;;;;;;9.57;3.35;;;7.40;99.90;;;;;;5061658;28;20025;-60
2024/02/02 10:05:28;;;;;;;15.73;4.30;;;7.40;99.90;;;;;;5061907;28;20086;-61
2024/02/02 10:08:03;;;;;;;13.50;4.20;;;7.50;99.90;;;;;;5053544;28;20504;-60
2024/02/02 10:10:42;;;;;;;15.20;3.60;;;7.40;99.90;;;;;;5059632;28;20460;-63
2024/02/02 10:13:21;;;;;;;13.80;3.30;;;7.40;99.90;;;;;;5059626;28;20101;-61
2024/02/02 10:16:10;;;;;;;10.07;3.15;;;7.50;99.90;;;;;;5057955;28;20025;-60
2024/02/02 10:18:38;;;;;;;14.88;3.65;;;7.60;99.90;;;;;;5055417;28;20055;-63
2024/02/02 10:21:47;;;;;;;20.13;3.83;;;7.50;99.90;;;;;;5053266;28;20127;-62
2024/02/02 10:24:36;;;;;;;12.13;3.45;;;7.50;99.90;;;;;;5058019;28;20345;-61
2024/02/02 10:27:05;;;;;;;20.63;3.80;;;7.60;99.90;;;;;;5053882;28;20025;-60
2024/02/02 10:29:51;;;;;;;14.48;3.38;;;7.50;99.90;;;;;;5058326;28;20106;-61
2024/02/02 10:32:57;;;;;;;16.52;3.53;;;7.60;99.90;;;;;;5062114;28;20035;-61
2024/02/02 10:35:44;;;;;;;12.93;3.70;;;7.80;99.90;;;;;;5063090;28;20465;-61
2024/02/02 10:38:40;;;;;;;12.93;3.17;;;7.90;99.90;;;;;;5055507;28;20025;-62
2024/02/02 10:41:40;;;;;;;19.40;3.38;;;7.90;99.90;;;;;;5060662;28;20498;-62
2024/02/02 10:44:13;;;;;;;11.60;2.53;;;7.90;99.90;;;;;;5044837;28;20498;-62
2024/02/02 10:46:50;;;;;;;11.43;3.08;;;7.70;99.90;;;;;;5063933;28;20040;-62
2024/02/02 10:49:24;;;;;;;11.77;2.75;;;8.00;99.90;;;;;;5062498;28;20111;-62
2024/02/02 10:52:07;;;;;;;11.88;3.03;;;8.00;99.90;;;;;;5064503;28;20114;-63
2024/02/02 10:55:00;;;;;;;11.57;2.67;;;8.00;99.90;;;;;;5061784;28;20025;-62
2024/02/02 10:57:35;;;;;;;8.73;2.38;;;8.20;99.90;;;;;;5054087;28;20036;-61
2024/02/02 11:00:21;;;;;;;12.57;3.08;;;8.60;99.90;;;;;;5066027;28;20087;-62
2024/02/02 11:03:11;;;;;;;13.50;3.13;;;8.80;99.90;;;;;;5062921;28;20104;-63
2024/02/02 11:05:49;;;;;;;;;;;9.10;99.90;;;;;;5056814;28;20400;-62
2024/02/02 11:08:18;;;;;;;11.63;2.58;;;9.20;99.90;;;;;;5058710;28;19935;-62
2024/02/02 11:10:44;;;;;;;13.15;2.85;;;9.40;99.90;;;;;;5063936;28;20640;-62
2024/02/02 11:13:13;;;;;;;15.60;2.90;;;9.60;99.90;;;;;;5059353;28;20040;-62
2024/02/02 11:16:11;;;;;;;15.73;3.85;;;10.20;99.90;;;;;;5053971;28;20029;-62
2024/02/02 11:19:07;;;;;;;14.43;3.42;;;9.90;99.90;;;;;;5064270;28;20568;-62
2024/02/02 11:21:46;;;;;;;11.32;3.03;;;9.90;99.90;;;;;;5060933;28;20032;-63
2024/02/02 11:24:43;;;;;;;10.05;3.25;;;10.40;99.90;;;;;;5064918;28;20028;-62
2024/02/02 11:27:16;;;;;;;16.73;3.45;;;10.60;99.90;;;;;;5061984;28;20502;-62
2024/02/02 11:30:02;;;;;;;13.13;3.40;;;10.80;99.90;;;;;;5061644;28;20093;-62
2024/02/02 11:32:50;;;;;;;11.02;3.28;;;10.70;99.90;;;;;;5065731;28;20028;-62
2024/02/02 11:35:28;;;;;;;11.68;3.00;;;10.30;99.90;;;;;;5056472;28;20401;-62
2024/02/02 11:38:08;;;;;;;13.88;3.22;;;10.00;99.90;;;;;;5058965;28;20079;-61
2024/02/02 11:40:37;;;;;;;15.20;3.50;;;9.90;99.90;;;;;;5062552;28;20024;-60
2024/02/02 11:43:05;;;;;;;11.88;2.97;;;9.90;99.90;;;;;;5055467;28;20090;-60
2024/02/02 11:45:38;;;;;;;16.38;3.63;;;9.80;99.90;;;;;;5054839;28;20029;-61
2024/02/02 11:48:08;;;;;;;15.20;3.95;;;10.00;99.90;;;;;;5063922;28;20371;-61
2024/02/02 11:50:40;;;;;;;14.75;3.17;;;10.30;99.90;;;;;;5066677;28;20052;-62
2024/02/02 11:53:33;;;;;;;16.30;3.33;;;10.00;99.90;;;;;;5060308;28;20055;-62
2024/02/02 11:56:04;;;;;;;13.50;3.50;;;10.10;99.90;;;;;;5060536;28;20031;-62
2024/02/02 11:58:31;;;;;;;10.18;2.88;;;10.40;99.90;;;;;;5063181;28;20100;-62
2024/02/02 12:01:14;;;;;;;17.60;3.55;;;10.70;99.90;;;;;;5067612;28;20073;-62
2024/02/02 12:04:11;;;;;;;17.13;3.67;;;11.00;99.90;;;;;;5065713;28;20032;-62
2024/02/02 12:06:53;;;;;;;11.80;3.65;;;11.50;99.90;;;;;;5064322;28;20040;-64
2024/02/02 12:09:28;;;;;;;14.45;3.03;;;11.90;99.90;;;;;;5066371;28;20013;-62
2024/02/02 12:11:56;;;;;;;14.95;3.72;;;12.10;99.90;;;;;;5058889;28;20149;-62
2024/02/02 12:14:40;;;;;;;15.05;3.22;;;12.20;99.90;;;;;;5062825;28;20463;-61
2024/02/02 12:17:10;;;;;;;13.68;3.33;;;12.00;99.90;;;;;;5063006;28;20028;-62
2024/02/02 12:19:36;;;;;;;15.38;3.05;;;11.20;99.90;;;;;;5060837;28;20031;-62
2024/02/02 12:22:02;;;;;;;11.07;2.97;;;10.80;99.90;;;;;;5060125;28;20392;-62
2024/02/02 12:24:28;;;;;;;13.20;3.13;;;10.60;99.90;;;;;;5067895;28;20020;-62
2024/02/02 12:26:54;;;;;;;14.82;4.18;;;10.40;99.90;;;;;;5060524;28;20023;-62
2024/02/02 12:29:19;;;;;;;16.38;3.78;;;10.20;99.90;;;;;;5056054;28;20454;-62
2024/02/02 12:31:45;;;;;;;14.90;3.70;;;10.30;99.90;;;;;;5056275;28;20101;-62
2024/02/02 12:34:12;;;;;;;15.52;3.53;;;10.60;99.90;;;;;;5065058;28;20033;-62
2024/02/02 12:36:38;;;;;;;12.35;2.80;;;11.00;99.90;;;;;;5066624;28;20032;-62
2024/02/02 12:39:05;;;;;;;11.48;3.35;;;11.50;99.90;;;;;;5060225;28;20036;-62
2024/02/02 12:41:34;;;;;;;11.15;3.25;;;12.20;99.90;;;;;;5065247;28;20063;-62
2024/02/02 12:44:00;;;;;;;10.02;3.55;;;13.00;99.90;;;;;;5058984;28;20099;-62
2024/02/02 12:46:27;;;;;;;14.27;2.95;;;13.60;99.90;;;;;;5065396;28;20017;-62
2024/02/02 12:48:54;;;;;;;14.07;3.70;;;14.50;98.20;;;;;;5057209;28;20120;-62
2024/02/02 12:51:19;;;;;;;15.88;3.40;;;14.60;97.60;;;;;;5056852;28;20115;-62
2024/02/02 12:53:46;;;;;;;14.43;3.60;;;14.10;98.00;;;;;;5060815;28;20508;-62
2024/02/02 12:56:13;;;;;;;16.98;3.28;;;12.90;99.90;;;;;;5064018;28;20426;-62
2024/02/02 12:58:40;;;;;;;12.05;3.30;;;12.50;99.90;;;;;;5057517;28;20085;-62
2024/02/02 13:01:06;;;;;;;16.98;4.15;;;12.40;99.90;;;;;;5055822;28;20025;-61